Time;durP1;ratioP1;P1;durP2;ratioP2;P2;SDS_P1;SDS_P2;PMS_P1;PMS_P2;Temp;Humidity;BMP_temperature;BMP_pressure;BME280_temperature;BME280_humidity;BME280_pressure;Samples;Min_cycle;Max_cycle;Signal;HPM_P1;HPM_P2
2021/03/09 00:00:49;;;;;;;1.10;1.10;;;4.60;99.90;;;;;;4942933;28;20032;-89
2021/03/09 00:03:15;;;;;;;0.88;0.88;;;4.60;99.90;;;;;;4944793;28;20038;-88
2021/03/09 00:05:41;;;;;;;0.47;0.47;;;4.70;99.90;;;;;;4938305;29;20060;-89
2021/03/09 00:08:07;;;;;;;0.70;0.52;;;4.80;99.90;;;;;;4937336;29;20031;-88
2021/03/09 00:10:32;;;;;;;0.47;0.47;;;4.80;99.90;;;;;;4942562;29;20108;-88
2021/03/09 00:12:58;;;;;;;0.20;0.20;;;4.70;99.90;;;;;;4936792;28;20056;-88
2021/03/09 00:15:24;;;;;;;0.35;0.35;;;5.10;99.90;;;;;;4946676;28;20023;-89
2021/03/09 00:17:50;;;;;;;0.43;0.43;;;5.00;99.90;;;;;;4947402;28;20035;-89
2021/03/09 00:20:16;;;;;;;1.25;1.02;;;4.70;99.90;;;;;;4944803;28;20032;-88
2021/03/09 00:22:42;;;;;;;0.63;0.63;;;4.40;99.90;;;;;;4943878;28;20035;-88
2021/03/09 00:25:08;;;;;;;2.55;1.88;;;4.30;99.90;;;;;;4944476;28;20318;-88
2021/03/09 00:27:34;;;;;;;1.50;0.68;;;4.50;99.90;;;;;;4944406;28;20024;-88
2021/03/09 00:30:00;;;;;;;0.45;0.45;;;4.30;99.90;;;;;;4949949;28;20031;-89
2021/03/09 00:32:26;;;;;;;2.95;1.65;;;4.00;99.90;;;;;;4943559;28;20373;-89
2021/03/09 00:34:51;;;;;;;0.52;0.50;;;4.20;99.90;;;;;;4950414;29;20090;-88
2021/03/09 00:37:17;;;;;;;0.95;0.95;;;4.30;99.90;;;;;;4946930;28;20110;-88
2021/03/09 00:39:43;;;;;;;0.30;0.30;;;4.40;99.90;;;;;;4942856;28;20043;-88
2021/03/09 00:42:09;;;;;;;0.20;0.20;;;4.10;99.90;;;;;;4945507;28;20052;-88
2021/03/09 00:44:35;;;;;;;0.82;0.82;;;4.00;99.90;;;;;;4945055;28;20031;-88
2021/03/09 00:47:01;;;;;;;3.05;2.25;;;4.00;99.90;;;;;;4950122;28;20035;-88
2021/03/09 00:49:26;;;;;;;0.60;0.57;;;4.00;99.90;;;;;;4944858;28;20031;-88
2021/03/09 00:51:52;;;;;;;1.55;1.27;;;4.00;99.90;;;;;;4952202;28;20514;-88
2021/03/09 00:54:18;;;;;;;0.65;0.65;;;4.10;99.90;;;;;;4946690;28;20067;-88
2021/03/09 00:56:44;;;;;;;1.05;1.00;;;3.80;99.90;;;;;;4948199;28;20472;-88
2021/03/09 00:59:10;;;;;;;0.80;0.80;;;3.90;99.90;;;;;;4946948;28;20037;-89
2021/03/09 01:01:35;;;;;;;1.38;1.27;;;4.00;99.90;;;;;;4947244;28;20439;-89
2021/03/09 01:04:01;;;;;;;0.98;0.82;;;3.80;99.90;;;;;;4951111;28;20046;-88
2021/03/09 01:06:27;;;;;;;4.05;0.77;;;3.80;99.90;;;;;;4946140;29;20563;-89
2021/03/09 01:08:53;;;;;;;0.45;0.45;;;3.60;99.90;;;;;;4942381;28;20075;-88
2021/03/09 01:11:19;;;;;;;0.65;0.65;;;3.50;99.90;;;;;;4950333;28;20023;-88
2021/03/09 01:13:45;;;;;;;2.75;0.75;;;3.40;99.90;;;;;;4949035;28;20424;-88
2021/03/09 01:16:10;;;;;;;0.20;0.20;;;3.30;99.90;;;;;;4940042;29;20023;-89
2021/03/09 01:18:36;;;;;;;2.30;1.88;;;3.20;99.90;;;;;;4947673;28;20073;-89
2021/03/09 01:21:03;;;;;;;11.88;1.60;;;3.50;99.90;;;;;;4941460;28;20031;-89
2021/03/09 01:23:28;;;;;;;1.17;1.17;;;3.20;99.90;;;;;;4942838;28;20415;-89
2021/03/09 01:25:54;;;;;;;0.77;0.77;;;3.80;99.90;;;;;;4949742;28;20047;-88
2021/03/09 01:28:20;;;;;;;0.50;0.50;;;3.80;99.90;;;;;;4944514;28;20388;-89
2021/03/09 01:30:46;;;;;;;0.68;0.68;;;3.80;99.90;;;;;;4951174;28;20093;-89
2021/03/09 01:33:12;;;;;;;2.60;0.73;;;3.70;99.90;;;;;;4947587;28;20511;-89
2021/03/09 01:35:38;;;;;;;0.40;0.40;;;3.50;99.90;;;;;;4946855;28;20499;-89
2021/03/09 01:38:06;;;;;;;1.65;1.55;;;3.40;99.90;;;;;;4948119;28;20066;-89
2021/03/09 01:40:32;;;;;;;0.38;0.38;;;3.40;99.90;;;;;;4948203;28;20452;-89
2021/03/09 01:42:58;;;;;;;0.68;0.68;;;3.50;99.90;;;;;;4944190;28;20163;-89
2021/03/09 01:45:24;;;;;;;2.33;1.13;;;3.50;99.90;;;;;;4948398;28;20121;-89
2021/03/09 01:47:50;;;;;;;0.95;0.95;;;3.40;99.90;;;;;;4943269;28;20483;-89
2021/03/09 01:50:19;;;;;;;1.83;0.95;;;3.40;99.90;;;;;;4948155;28;20407;-89
2021/03/09 01:52:47;;;;;;;1.38;0.82;;;3.50;99.90;;;;;;4951349;28;20035;-89
2021/03/09 01:55:14;;;;;;;0.50;0.50;;;3.60;99.90;;;;;;4947129;28;20134;-89
2021/03/09 01:57:41;;;;;;;3.20;1.13;;;3.30;99.90;;;;;;4942596;28;20393;-89
2021/03/09 02:00:07;;;;;;;;;;;3.40;99.90;;;;;;4941605;29;20035;-89
2021/03/09 02:02:34;;;;;;;0.47;0.47;;;3.30;99.90;;;;;;4948105;28;19917;-89
2021/03/09 02:05:01;;;;;;;4.18;1.58;;;3.50;99.90;;;;;;4950951;28;20035;-89
2021/03/09 02:07:27;;;;;;;3.78;2.72;;;3.60;99.90;;;;;;4963723;28;20034;-89
2021/03/09 02:09:53;;;;;;;10.93;1.60;;;3.50;99.90;;;;;;4952088;28;20035;-89
2021/03/09 02:12:34;;;;;;;0.45;0.45;;;3.30;99.90;;;;;;4951444;28;20534;-89
2021/03/09 02:15:07;;;;;;;0.20;0.20;;;3.50;99.90;;;;;;4944488;28;20054;-89
2021/03/09 02:17:57;;;;;;;4.10;2.50;;;3.50;99.90;;;;;;4952228;29;20035;-89
2021/03/09 02:20:41;;;;;;;0.50;0.50;;;3.60;99.90;;;;;;4945522;29;20166;-89
2021/03/09 02:23:31;;;;;;;0.30;0.30;;;3.40;99.90;;;;;;4940964;29;20027;-88
2021/03/09 02:26:34;;;;;;;1.23;1.15;;;3.70;99.90;;;;;;4951124;29;20027;-87
2021/03/09 02:29:19;;;;;;;1.95;0.85;;;3.70;99.90;;;;;;4946930;29;20035;-87
2021/03/09 02:31:50;;;;;;;0.30;0.30;;;3.60;99.90;;;;;;4950567;28;20031;-87
2021/03/09 02:34:26;;;;;;;0.82;0.82;;;3.40;99.90;;;;;;4943657;28;20027;-87
2021/03/09 02:36:52;;;;;;;0.45;0.45;;;3.20;99.90;;;;;;4947606;28;20063;-87
2021/03/09 02:39:20;;;;;;;0.75;0.75;;;3.10;99.90;;;;;;4949720;28;20176;-87
2021/03/09 02:41:48;;;;;;;0.47;0.47;;;2.90;99.90;;;;;;4947688;28;20028;-87
2021/03/09 02:44:20;;;;;;;0.40;0.40;;;2.80;99.90;;;;;;4947029;29;20059;-88
2021/03/09 02:46:48;;;;;;;0.22;0.22;;;3.10;99.90;;;;;;4941946;29;20024;-88
2021/03/09 02:49:15;;;;;;;1.80;1.67;;;3.10;99.90;;;;;;4949311;29;20108;-87
2021/03/09 02:51:43;;;;;;;0.63;0.63;;;2.90;99.90;;;;;;4951277;28;20027;-88
2021/03/09 02:54:12;;;;;;;0.73;0.73;;;2.90;99.90;;;;;;4949823;29;20496;-87
2021/03/09 02:56:39;;;;;;;0.32;0.32;;;2.80;99.90;;;;;;4946041;28;20035;-87
2021/03/09 02:59:12;;;;;;;8.40;0.80;;;2.70;99.90;;;;;;4946806;28;20088;-87
2021/03/09 03:01:40;;;;;;;0.50;0.50;;;2.50;99.90;;;;;;4966446;28;20031;-87
2021/03/09 03:04:09;;;;;;;0.80;0.80;;;2.50;99.90;;;;;;4945114;29;20357;-88
2021/03/09 03:06:38;;;;;;;0.30;0.30;;;2.30;99.90;;;;;;4951066;29;20043;-87
2021/03/09 03:09:04;;;;;;;0.20;0.20;;;2.20;99.90;;;;;;4949691;28;20019;-88
2021/03/09 03:11:31;;;;;;;0.38;0.38;;;2.10;99.90;;;;;;4941652;28;20187;-88
2021/03/09 03:14:02;;;;;;;1.02;1.00;;;2.10;99.90;;;;;;4938596;29;20043;-88
2021/03/09 03:16:30;;;;;;;1.27;1.17;;;2.30;99.90;;;;;;4945724;28;20078;-88
2021/03/09 03:18:59;;;;;;;0.75;0.75;;;2.50;99.90;;;;;;4940509;29;20504;-88
2021/03/09 03:21:27;;;;;;;0.90;0.90;;;2.50;99.90;;;;;;4940220;28;20027;-88
2021/03/09 03:23:55;;;;;;;1.75;1.67;;;2.40;99.90;;;;;;4938980;28;20431;-88
2021/03/09 03:26:24;;;;;;;0.60;0.57;;;2.20;99.90;;;;;;4939982;28;20031;-87
2021/03/09 03:28:52;;;;;;;1.38;1.27;;;2.40;99.90;;;;;;4946401;28;20523;-88
2021/03/09 03:31:19;;;;;;;0.57;0.55;;;2.30;99.90;;;;;;4948692;28;20019;-88
2021/03/09 03:33:45;;;;;;;0.77;0.77;;;2.50;99.90;;;;;;4946082;29;20122;-88
2021/03/09 03:36:10;;;;;;;15.07;1.70;;;2.30;99.90;;;;;;4945012;28;20388;-88
2021/03/09 03:38:39;;;;;;;0.85;0.85;;;2.20;99.90;;;;;;4948380;28;20142;-88
2021/03/09 03:41:06;;;;;;;0.30;0.30;;;2.30;99.90;;;;;;4946281;28;20047;-88
2021/03/09 03:43:33;;;;;;;0.20;0.20;;;2.10;99.90;;;;;;4947287;28;20122;-88
2021/03/09 03:46:00;;;;;;;0.20;0.20;;;2.40;99.90;;;;;;4941716;28;20041;-88
2021/03/09 03:48:26;;;;;;;0.20;0.20;;;2.30;99.90;;;;;;4946546;29;20031;-88
2021/03/09 03:50:54;;;;;;;0.20;0.20;;;2.30;99.90;;;;;;4944858;29;20095;-90
2021/03/09 03:53:29;;;;;;;1.25;0.82;;;2.40;99.90;;;;;;4946224;28;20110;-90
2021/03/09 03:56:23;;;;;;;0.22;0.22;;;2.40;99.90;;;;;;4942503;28;20031;-90
2021/03/09 03:59:06;;;;;;;0.47;0.45;;;2.50;99.90;;;;;;4938273;29;20027;-90
2021/03/09 04:01:32;;;;;;;1.75;1.65;;;2.40;99.90;;;;;;4940119;29;20031;-90
2021/03/09 04:04:00;;;;;;;1.17;1.13;;;2.10;99.90;;;;;;4946128;28;20443;-90
2021/03/09 04:06:28;;;;;;;0.68;0.68;;;2.20;99.90;;;;;;4939444;28;20090;-90
2021/03/09 04:09:03;;;;;;;0.40;0.40;;;2.40;99.90;;;;;;4942138;28;20020;-90
2021/03/09 04:11:29;;;;;;;0.55;0.55;;;2.40;99.90;;;;;;4937787;28;20039;-90
2021/03/09 04:13:57;;;;;;;3.97;1.15;;;2.40;99.90;;;;;;4941683;28;20038;-90
2021/03/09 04:16:25;;;;;;;1.10;1.08;;;2.30;99.90;;;;;;4951141;28;20491;-90
2021/03/09 04:18:53;;;;;;;0.65;0.65;;;2.10;99.90;;;;;;4951866;28;20081;-90
2021/03/09 04:21:19;;;;;;;0.70;0.70;;;1.90;99.90;;;;;;4952865;28;20023;-90
2021/03/09 04:23:46;;;;;;;1.00;0.95;;;1.60;99.90;;;;;;4948022;28;20023;-90
2021/03/09 04:26:13;;;;;;;1.50;1.42;;;1.80;99.90;;;;;;4940401;28;20040;-90
2021/03/09 04:28:40;;;;;;;0.68;0.68;;;2.00;99.90;;;;;;4943596;28;20050;-90
2021/03/09 04:31:05;;;;;;;;;;;1.80;99.90;;;;;;4945201;28;20035;-91
2021/03/09 04:33:32;;;;;;;2.63;2.43;;;1.70;99.90;;;;;;4953595;28;20405;-90
2021/03/09 04:35:58;;;;;;;0.38;0.38;;;1.60;99.90;;;;;;4941791;28;20031;-91
2021/03/09 04:38:25;;;;;;;4.93;1.43;;;1.50;99.90;;;;;;4951910;28;20106;-90
2021/03/09 04:40:52;;;;;;;1.45;1.05;;;1.60;99.90;;;;;;4947469;28;20268;-91
2021/03/09 04:43:18;;;;;;;;;;;1.60;99.90;;;;;;4941533;28;20069;-91
2021/03/09 04:45:44;;;;;;;0.38;0.38;;;1.60;99.90;;;;;;4947262;28;20005;-91
2021/03/09 04:48:11;;;;;;;2.75;1.00;;;1.60;99.90;;;;;;4946383;28;20031;-91
2021/03/09 04:50:37;;;;;;;0.32;0.32;;;1.40;99.90;;;;;;4944764;29;20749;-91
2021/03/09 04:53:05;;;;;;;0.88;0.88;;;1.10;99.90;;;;;;4935633;29;20419;-91
2021/03/09 04:55:32;;;;;;;1.85;1.17;;;1.20;99.90;;;;;;4946298;28;20051;-91
2021/03/09 04:57:59;;;;;;;0.52;0.52;;;1.30;99.90;;;;;;4943354;28;20515;-92
2021/03/09 05:00:26;;;;;;;1.00;0.70;;;1.10;99.90;;;;;;4939967;28;20122;-91
2021/03/09 05:02:52;;;;;;;;;;;0.90;99.90;;;;;;4945701;29;20106;-90
2021/03/09 05:05:21;;;;;;;0.30;0.30;;;0.80;99.90;;;;;;4964502;28;19918;-90
2021/03/09 05:07:47;;;;;;;1.23;0.88;;;0.70;99.90;;;;;;4939104;29;20031;-90
2021/03/09 05:10:14;;;;;;;0.40;0.40;;;0.80;99.90;;;;;;4951694;28;20118;-91
2021/03/09 05:12:42;;;;;;;1.38;1.27;;;1.00;99.90;;;;;;4945598;28;20142;-92
2021/03/09 05:15:09;;;;;;;0.95;0.93;;;0.80;99.90;;;;;;4947101;28;20055;-91
2021/03/09 05:17:35;;;;;;;;;;;0.60;99.90;;;;;;4945437;28;20071;-91
2021/03/09 05:20:02;;;;;;;1.23;0.77;;;0.70;99.90;;;;;;4945114;28;20394;-92
2021/03/09 05:22:28;;;;;;;2.95;1.25;;;0.80;99.90;;;;;;4959430;28;20050;-91
2021/03/09 05:24:53;;;;;;;2.30;1.80;;;1.30;99.90;;;;;;4946536;28;20571;-90
2021/03/09 05:27:19;;;;;;;0.82;0.82;;;1.00;99.90;;;;;;4948196;28;20483;-91
2021/03/09 05:29:45;;;;;;;0.10;0.10;;;0.90;99.90;;;;;;4947765;29;20487;-90
2021/03/09 05:32:11;;;;;;;0.38;0.38;;;0.90;99.90;;;;;;4944326;29;20118;-91
2021/03/09 05:34:36;;;;;;;0.50;0.50;;;0.90;99.90;;;;;;4935151;28;20036;-90
2021/03/09 05:37:02;;;;;;;1.55;1.23;;;0.90;99.90;;;;;;4943462;28;20070;-91
2021/03/09 05:39:28;;;;;;;0.75;0.50;;;0.80;99.90;;;;;;4950092;28;20035;-91
2021/03/09 05:41:54;;;;;;;0.40;0.40;;;0.60;99.90;;;;;;4947921;28;20107;-88
2021/03/09 05:44:20;;;;;;;0.20;0.20;;;0.40;99.90;;;;;;4945343;28;20031;-87
2021/03/09 05:46:46;;;;;;;0.55;0.55;;;0.30;99.90;;;;;;4941801;28;20128;-87
2021/03/09 05:49:11;;;;;;;0.45;0.45;;;0.60;99.90;;;;;;4941120;29;20031;-88
2021/03/09 05:51:38;;;;;;;1.48;0.85;;;0.60;99.90;;;;;;4948647;28;20027;-88
2021/03/09 05:54:04;;;;;;;0.30;0.30;;;0.50;99.90;;;;;;4947350;28;20019;-89
2021/03/09 05:56:30;;;;;;;1.17;1.15;;;0.50;99.90;;;;;;4945087;28;20074;-87
2021/03/09 05:58:55;;;;;;;1.05;1.05;;;0.60;99.90;;;;;;4941567;28;20055;-86
2021/03/09 06:01:21;;;;;;;0.90;0.90;;;0.50;99.90;;;;;;4941240;28;20074;-86
2021/03/09 06:03:47;;;;;;;0.22;0.22;;;0.60;99.90;;;;;;4950566;28;20496;-85
2021/03/09 06:06:13;;;;;;;0.80;0.80;;;0.50;99.90;;;;;;4947077;29;20047;-86
2021/03/09 06:08:39;;;;;;;0.40;0.40;;;0.30;99.90;;;;;;4946381;29;20031;-85
2021/03/09 06:11:13;;;;;;;1.48;1.42;;;0.40;99.90;;;;;;4945831;28;20035;-85
2021/03/09 06:13:39;;;;;;;0.47;0.47;;;0.30;99.90;;;;;;4942143;28;20071;-86
2021/03/09 06:16:05;;;;;;;0.85;0.85;;;0.30;99.90;;;;;;4940624;28;20035;-86
2021/03/09 06:18:31;;;;;;;0.88;0.88;;;0.40;99.90;;;;;;4945515;28;20373;-86
2021/03/09 06:21:15;;;;;;;0.57;0.57;;;0.40;99.90;;;;;;4943684;28;20148;-86
2021/03/09 06:23:43;;;;;;;0.75;0.75;;;0.30;99.90;;;;;;4940221;28;20079;-86
2021/03/09 06:26:40;;;;;;;3.20;1.05;;;0.40;99.90;;;;;;4945079;28;20039;-87
2021/03/09 06:29:11;;;;;;;0.40;0.40;;;0.50;99.90;;;;;;4938180;28;20027;-87
2021/03/09 06:31:50;;;;;;;0.77;0.77;;;0.80;99.90;;;;;;4944284;28;20715;-88
2021/03/09 06:34:29;;;;;;;0.60;0.60;;;1.10;99.90;;;;;;4936876;28;20024;-88
2021/03/09 06:37:13;;;;;;;0.80;0.80;;;1.40;99.90;;;;;;4934109;28;20089;-89
2021/03/09 06:39:46;;;;;;;0.82;0.82;;;1.60;99.90;;;;;;4947418;28;20376;-87
2021/03/09 06:42:14;;;;;;;2.90;0.68;;;1.80;99.90;;;;;;4951429;28;20705;-89
2021/03/09 06:44:39;;;;;;;1.27;1.20;;;2.10;99.90;;;;;;4941631;28;20050;-86
2021/03/09 06:47:07;;;;;;;0.52;0.52;;;2.40;99.90;;;;;;4950003;28;20404;-86
2021/03/09 06:49:53;;;;;;;0.82;0.82;;;2.70;99.90;;;;;;4950990;28;20110;-86
2021/03/09 06:52:21;;;;;;;0.75;0.75;;;3.20;99.90;;;;;;4948533;28;20024;-87
2021/03/09 06:54:55;;;;;;;0.30;0.30;;;3.80;99.90;;;;;;4947042;28;20027;-88
2021/03/09 06:57:22;;;;;;;2.47;2.28;;;4.40;99.90;;;;;;4938046;28;20106;-89
2021/03/09 06:59:53;;;;;;;8.07;1.30;;;4.20;99.90;;;;;;4941383;28;20037;-91
2021/03/09 07:02:26;;;;;;;2.55;2.05;;;4.30;99.90;;;;;;4950687;28;20039;-88
2021/03/09 07:05:03;;;;;;;0.70;0.70;;;4.80;99.90;;;;;;4941360;28;20145;-89
2021/03/09 07:07:36;;;;;;;0.65;0.65;;;5.20;99.90;;;;;;4936135;29;20023;-89
2021/03/09 07:10:07;;;;;;;0.55;0.55;;;5.60;99.90;;;;;;4948360;28;20661;-88
2021/03/09 07:12:34;;;;;;;1.17;1.08;;;5.90;99.90;;;;;;4947328;28;20074;-88
2021/03/09 07:15:01;;;;;;;1.40;1.20;;;7.30;99.90;;;;;;4934823;29;20865;-86
2021/03/09 07:17:29;;;;;;;0.60;0.60;;;7.60;99.90;;;;;;4943207;28;20637;-87
2021/03/09 07:19:57;;;;;;;0.15;0.15;;;7.10;99.90;;;;;;4941795;28;20129;-87
2021/03/09 07:22:24;;;;;;;7.47;1.75;;;7.80;99.90;;;;;;4939981;28;20028;-87
2021/03/09 07:24:58;;;;;;;1.45;1.15;;;8.50;99.90;;;;;;4946971;28;20677;-87
2021/03/09 07:27:52;;;;;;;0.88;0.68;;;9.40;99.90;;;;;;4941537;28;20095;-86
2021/03/09 07:30:19;;;;;;;0.47;0.47;;;9.50;99.90;;;;;;4926511;29;20043;-88
2021/03/09 07:32:56;;;;;;;0.38;0.38;;;9.40;99.90;;;;;;4926417;29;20067;-87
2021/03/09 07:35:23;;;;;;;;;;;8.50;99.90;;;;;;4921823;29;20100;-88
2021/03/09 07:37:51;;;;;;;0.20;0.20;;;8.50;99.90;;;;;;4915773;29;19915;-88
2021/03/09 07:40:22;;;;;;;0.50;0.50;;;9.50;99.90;;;;;;4921457;29;20036;-87
2021/03/09 07:42:48;;;;;;;2.10;0.95;;;9.20;99.90;;;;;;4923695;29;20062;-88
2021/03/09 07:45:20;;;;;;;2.08;0.73;;;9.30;99.90;;;;;;4923783;29;20063;-88
2021/03/09 07:47:54;;;;;;;3.50;2.95;;;9.40;99.90;;;;;;4921330;29;20036;-92
2021/03/09 07:50:22;;;;;;;0.30;0.30;;;9.60;99.90;;;;;;4912726;29;20031;-86
2021/03/09 07:53:11;;;;;;;7.03;2.05;;;9.40;99.90;;;;;;4923060;29;20107;-86
2021/03/09 07:55:41;;;;;;;2.70;1.63;;;9.90;99.90;;;;;;4918787;29;20043;-86
2021/03/09 07:58:19;;;;;;;2.75;2.25;;;10.60;99.90;;;;;;4925235;29;20035;-86
2021/03/09 08:00:50;;;;;;;0.55;0.55;;;11.20;99.90;;;;;;4923517;29;20048;-86
2021/03/09 08:03:20;;;;;;;1.23;1.00;;;11.20;99.90;;;;;;4926007;29;20028;-87
2021/03/09 08:05:56;;;;;;;0.60;0.60;;;11.60;99.90;;;;;;4928232;29;20040;-86
2021/03/09 08:08:37;;;;;;;0.90;0.90;;;12.90;99.90;;;;;;4951496;28;20126;-88
2021/03/09 08:13:38;;;;;;;0.20;0.20;;;12.60;99.90;;;;;;5016730;23;20063;-87
2021/03/09 08:16:19;;;;;;;0.85;0.85;;;13.00;99.90;;;;;;4951324;28;20039;-87
2021/03/09 08:18:46;;;;;;;1.08;1.08;;;13.10;99.90;;;;;;4957058;28;20914;-87
2021/03/09 08:21:12;;;;;;;0.95;0.52;;;13.20;99.90;;;;;;4955973;28;20026;-87
2021/03/09 08:23:37;;;;;;;0.57;0.57;;;13.50;99.90;;;;;;4962047;28;20039;-86
2021/03/09 08:26:08;;;;;;;0.82;0.82;;;13.60;99.90;;;;;;4966609;28;20065;-88
2021/03/09 08:28:36;;;;;;;0.32;0.32;;;14.20;99.90;;;;;;4952279;28;20020;-89
2021/03/09 08:31:14;;;;;;;2.03;1.50;;;13.60;99.90;;;;;;4950687;28;20119;-88
2021/03/09 08:33:46;;;;;;;1.38;1.23;;;13.40;99.90;;;;;;4940660;28;20027;-88
2021/03/09 08:36:24;;;;;;;1.10;1.10;;;13.20;99.90;;;;;;4952690;28;20035;-88
2021/03/09 08:39:13;;;;;;;0.90;0.90;;;12.20;99.90;;;;;;4964290;28;20031;-88
2021/03/09 08:41:42;;;;;;;1.45;1.35;;;12.50;99.90;;;;;;4952157;28;20040;-87
2021/03/09 08:44:16;;;;;;;9.45;1.48;;;13.50;99.90;;;;;;4952897;28;20767;-87
2021/03/09 08:47:02;;;;;;;1.27;0.98;;;14.10;99.90;;;;;;4955487;28;20043;-86
2021/03/09 08:49:36;;;;;;;1.90;1.23;;;14.10;99.90;;;;;;4951604;28;20028;-86
2021/03/09 08:52:08;;;;;;;2.55;2.10;;;15.10;99.90;;;;;;4951583;28;20035;-86
2021/03/09 08:54:51;;;;;;;2.63;2.42;;;14.20;99.90;;;;;;4952677;28;20032;-88
2021/03/09 08:57:20;;;;;;;0.88;0.88;;;14.60;99.90;;;;;;4940079;29;20031;-87
2021/03/09 08:59:50;;;;;;;1.58;1.48;;;14.90;99.90;;;;;;4949989;28;20066;-87
2021/03/09 09:02:18;;;;;;;2.33;1.48;;;14.10;99.90;;;;;;4951134;28;20499;-88
2021/03/09 09:04:46;;;;;;;1.13;1.08;;;15.90;99.90;;;;;;4950800;28;20031;-88
2021/03/09 09:07:28;;;;;;;0.68;0.68;;;16.30;99.90;;;;;;4950196;28;20031;-89
2021/03/09 09:09:57;;;;;;;1.70;1.40;;;15.80;99.90;;;;;;4950663;28;20027;-88
2021/03/09 09:12:27;;;;;;;2.03;1.48;;;16.30;99.90;;;;;;4949830;28;20047;-88
2021/03/09 09:15:01;;;;;;;0.55;0.55;;;16.50;99.90;;;;;;4950866;28;20082;-88
2021/03/09 09:17:30;;;;;;;3.30;1.52;;;16.40;99.90;;;;;;4952091;28;20027;-88
2021/03/09 09:20:00;;;;;;;0.10;0.10;;;18.00;99.90;;;;;;4951682;28;20039;-88
2021/03/09 09:22:28;;;;;;;0.28;0.28;;;17.90;99.90;;;;;;4951356;28;20023;-88
2021/03/09 09:25:07;;;;;;;0.75;0.75;;;17.90;99.90;;;;;;4951366;28;20037;-88
2021/03/09 09:27:47;;;;;;;0.55;0.55;;;19.30;99.90;;;;;;4954328;28;20066;-88
2021/03/09 09:30:19;;;;;;;2.00;0.95;;;17.00;99.90;;;;;;4942899;28;20565;-87
2021/03/09 09:32:53;;;;;;;0.75;0.75;;;16.40;99.90;;;;;;4965152;28;20406;-87
2021/03/09 09:35:21;;;;;;;1.50;1.40;;;15.70;99.90;;;;;;4949238;28;20090;-87
2021/03/09 09:37:56;;;;;;;3.63;1.38;;;14.90;99.90;;;;;;4958139;28;20025;-89
2021/03/09 09:40:34;;;;;;;0.60;0.60;;;15.70;99.90;;;;;;4949928;28;20039;-89
2021/03/09 09:43:10;;;;;;;1.80;1.23;;;17.70;99.90;;;;;;4950119;28;20097;-88
2021/03/09 09:45:42;;;;;;;1.00;1.00;;;18.80;99.90;;;;;;4945739;28;20043;-89
2021/03/09 09:48:13;;;;;;;0.38;0.38;;;16.30;99.90;;;;;;4949145;28;20455;-88
2021/03/09 09:50:48;;;;;;;0.80;0.80;;;19.00;99.90;;;;;;4951293;28;20118;-88
2021/03/09 09:53:32;;;;;;;0.57;0.57;;;18.70;99.90;;;;;;4949866;28;20035;-88
2021/03/09 09:55:59;;;;;;;0.98;0.98;;;19.40;99.90;;;;;;4949317;28;20035;-87
2021/03/09 09:58:51;;;;;;;1.30;1.15;;;18.10;99.90;;;;;;4949458;28;20089;-86
2021/03/09 10:01:19;;;;;;;1.98;1.42;;;19.10;99.90;;;;;;4949031;28;20036;-87
2021/03/09 10:03:56;;;;;;;0.52;0.52;;;19.90;99.90;;;;;;4962125;28;20091;-87
2021/03/09 10:06:29;;;;;;;1.48;0.88;;;19.40;99.90;;;;;;4951222;28;20027;-89
2021/03/09 10:09:06;;;;;;;1.55;1.45;;;19.00;99.90;;;;;;4949281;28;20134;-87
2021/03/09 10:11:32;;;;;;;1.65;1.35;;;18.20;99.90;;;;;;4949618;28;20566;-89
2021/03/09 10:14:09;;;;;;;2.67;1.13;;;18.80;99.90;;;;;;4949819;28;20020;-88
2021/03/09 10:16:35;;;;;;;;;;;19.60;99.90;;;;;;4950262;28;20050;-89
2021/03/09 10:19:01;;;;;;;6.47;1.88;;;17.50;99.90;;;;;;4951217;28;19914;-89
2021/03/09 10:21:33;;;;;;;0.95;0.95;;;17.20;99.90;;;;;;4950021;28;20036;-89
2021/03/09 10:24:01;;;;;;;0.45;0.45;;;17.50;99.90;;;;;;4949042;28;20770;-87
2021/03/09 10:26:31;;;;;;;1.60;1.52;;;18.70;99.90;;;;;;4950107;28;20114;-87
2021/03/09 10:29:12;;;;;;;1.38;1.27;;;17.70;99.90;;;;;;4950551;28;20055;-87
2021/03/09 10:31:43;;;;;;;1.33;1.30;;;18.40;99.90;;;;;;4954384;28;20113;-88
2021/03/09 10:34:10;;;;;;;1.33;0.82;;;17.10;99.90;;;;;;4950524;28;20127;-87
2021/03/09 10:36:57;;;;;;;1.85;1.75;;;17.90;99.90;;;;;;4950104;28;20027;-87
2021/03/09 10:39:26;;;;;;;3.63;1.33;;;19.20;99.90;;;;;;4949827;28;20067;-88
2021/03/09 10:41:52;;;;;;;2.55;1.77;;;20.40;99.90;;;;;;4964257;28;20031;-86
2021/03/09 10:44:36;;;;;;;1.42;1.33;;;21.40;99.50;;;;;;4950452;28;20503;-88
2021/03/09 10:47:04;;;;;;;1.00;1.00;;;21.40;99.90;;;;;;4955103;28;20027;-86
2021/03/09 10:49:31;;;;;;;2.60;1.83;;;21.60;99.90;;;;;;4950668;28;20026;-87
2021/03/09 10:52:03;;;;;;;1.73;1.55;;;22.50;99.90;;;;;;4949266;28;20122;-87
2021/03/09 10:54:29;;;;;;;1.83;1.67;;;21.20;99.90;;;;;;4949256;28;20089;-89
2021/03/09 10:56:56;;;;;;;1.50;1.15;;;21.50;99.90;;;;;;4950484;28;20031;-87
2021/03/09 10:59:22;;;;;;;;;;;20.70;99.90;;;;;;4951075;28;20037;-87
2021/03/09 11:01:53;;;;;;;1.83;1.70;;;19.90;99.90;;;;;;4950064;28;19910;-88
2021/03/09 11:04:31;;;;;;;1.55;1.45;;;18.70;99.90;;;;;;4942164;28;20039;-89
2021/03/09 11:07:02;;;;;;;0.55;0.55;;;19.00;99.90;;;;;;4961883;28;20570;-89
2021/03/09 11:09:28;;;;;;;4.93;2.10;;;18.90;99.90;;;;;;4948728;28;20119;-88
2021/03/09 11:11:54;;;;;;;9.13;2.17;;;18.20;99.90;;;;;;4954803;28;20142;-89
2021/03/09 11:14:19;;;;;;;3.17;1.33;;;18.90;99.90;;;;;;4948539;28;20239;-88
2021/03/09 11:16:45;;;;;;;4.32;2.08;;;20.00;99.90;;;;;;4949521;28;20039;-88
2021/03/09 11:19:11;;;;;;;7.55;2.28;;;18.20;99.90;;;;;;4949819;28;20114;-87
2021/03/09 11:21:37;;;;;;;1.63;1.52;;;18.70;99.90;;;;;;4951690;28;20019;-88
2021/03/09 11:24:03;;;;;;;3.90;2.88;;;19.60;99.90;;;;;;4953946;28;20031;-87
2021/03/09 11:26:30;;;;;;;3.20;1.30;;;18.90;99.90;;;;;;4949601;28;20030;-86
2021/03/09 11:28:56;;;;;;;9.95;1.25;;;19.80;99.90;;;;;;4956185;28;20504;-86
2021/03/09 11:31:22;;;;;;;2.25;1.67;;;19.60;99.90;;;;;;4950409;28;20554;-87
2021/03/09 11:33:48;;;;;;;2.00;1.80;;;17.60;99.90;;;;;;4949670;28;20023;-86
2021/03/09 11:36:14;;;;;;;1.38;1.23;;;18.10;99.90;;;;;;4948015;28;21128;-87
2021/03/09 11:38:42;;;;;;;1.02;1.02;;;18.10;99.90;;;;;;4949867;28;20043;-86
2021/03/09 11:41:10;;;;;;;1.02;1.02;;;21.70;99.90;;;;;;4948973;28;20043;-86
2021/03/09 11:43:36;;;;;;;1.58;1.48;;;18.90;99.90;;;;;;4949541;28;20046;-87
2021/03/09 11:46:02;;;;;;;1.13;1.10;;;18.10;99.90;;;;;;4948351;28;20038;-86
2021/03/09 11:48:28;;;;;;;1.23;1.10;;;18.50;99.90;;;;;;4952097;28;20026;-86
2021/03/09 11:50:54;;;;;;;1.67;1.58;;;15.70;99.90;;;;;;4953085;28;20031;-86
2021/03/09 11:53:20;;;;;;;3.10;1.83;;;13.00;99.90;;;;;;4949382;28;20799;-86
2021/03/09 11:55:46;;;;;;;1.48;1.42;;;12.40;99.90;;;;;;4949961;28;20043;-88
2021/03/09 11:58:12;;;;;;;1.63;1.57;;;12.30;99.90;;;;;;4949438;28;20031;-87
2021/03/09 12:00:38;;;;;;;2.25;1.75;;;11.90;99.90;;;;;;4947599;28;20143;-87
2021/03/09 12:03:04;;;;;;;1.55;1.33;;;11.90;99.90;;;;;;4948877;28;20035;-87
2021/03/09 12:05:30;;;;;;;2.38;2.17;;;11.60;99.90;;;;;;4949627;28;20038;-88
2021/03/09 12:07:56;;;;;;;2.47;1.55;;;11.90;99.90;;;;;;4948078;28;20138;-87
2021/03/09 12:10:22;;;;;;;0.60;0.60;;;11.70;99.90;;;;;;4950571;28;20023;-88
2021/03/09 12:12:48;;;;;;;2.20;1.25;;;11.70;99.90;;;;;;4950554;28;20135;-88
2021/03/09 12:15:14;;;;;;;2.92;1.98;;;11.60;99.90;;;;;;4947743;28;20058;-88
2021/03/09 12:17:40;;;;;;;1.90;1.70;;;11.60;99.90;;;;;;4949091;28;20432;-88
2021/03/09 12:20:07;;;;;;;1.42;1.33;;;12.10;99.90;;;;;;4948390;28;20183;-88
2021/03/09 12:22:34;;;;;;;3.10;2.47;;;11.60;99.90;;;;;;4948990;28;20058;-88
2021/03/09 12:24:59;;;;;;;0.90;0.90;;;11.40;99.90;;;;;;4948438;28;20496;-88
2021/03/09 12:27:25;;;;;;;1.48;1.38;;;11.50;99.90;;;;;;4951055;28;20109;-88
2021/03/09 12:29:51;;;;;;;0.77;0.77;;;11.30;99.90;;;;;;4952564;28;20035;-87
2021/03/09 12:32:17;;;;;;;1.00;1.00;;;11.50;99.90;;;;;;4958599;28;20099;-88
2021/03/09 12:34:43;;;;;;;1.03;0.93;;;11.40;99.90;;;;;;4952258;28;20111;-87
2021/03/09 12:37:09;;;;;;;1.85;1.75;;;11.80;99.90;;;;;;4952266;28;20126;-85
2021/03/09 12:39:34;;;;;;;1.13;1.02;;;11.50;99.90;;;;;;4952192;28;20027;-84
2021/03/09 12:42:00;;;;;;;0.95;0.95;;;11.60;99.90;;;;;;4952222;28;20050;-88
2021/03/09 12:44:26;;;;;;;1.38;1.38;;;11.60;99.90;;;;;;4950793;28;20495;-88
2021/03/09 12:46:53;;;;;;;3.03;2.80;;;11.40;99.90;;;;;;4957089;28;20034;-88
2021/03/09 12:49:19;;;;;;;0.90;0.90;;;11.40;99.90;;;;;;4953325;28;20039;-88
2021/03/09 12:51:44;;;;;;;3.67;2.05;;;11.60;99.90;;;;;;4952427;28;20023;-88
2021/03/09 12:54:10;;;;;;;1.65;1.13;;;11.40;99.90;;;;;;4952712;28;20106;-88
2021/03/09 12:56:36;;;;;;;3.03;2.00;;;11.40;99.90;;;;;;4951086;28;20097;-88
2021/03/09 12:59:02;;;;;;;6.97;1.50;;;11.20;99.90;;;;;;4950253;28;20038;-88
2021/03/09 13:01:31;;;;;;;6.07;1.02;;;11.10;99.90;;;;;;4950673;28;20566;-88
2021/03/09 13:03:57;;;;;;;2.97;1.45;;;11.20;99.90;;;;;;4950849;28;21563;-88
2021/03/09 13:06:23;;;;;;;2.13;1.73;;;11.10;99.90;;;;;;4952015;28;20015;-88
2021/03/09 13:08:49;;;;;;;7.80;2.55;;;11.30;99.90;;;;;;4951258;28;20154;-87